sensor_id;sensor_type;location;lat;lon;timestamp;P1;durP1;ratioP1;P2;durP2;ratioP2
57231;SDS011;43488;46.934;8.276;2022-09-21T00:01:24;631.05;;;408.38;;
57231;SDS011;43488;46.934;8.276;2022-09-21T00:03:55;643.75;;;418.80;;
57231;SDS011;43488;46.934;8.276;2022-09-21T00:06:29;624.03;;;397.27;;
57231;SDS011;43488;46.934;8.276;2022-09-21T00:08:59;633.63;;;408.25;;
57231;SDS011;43488;46.934;8.276;2022-09-21T00:11:31;629.05;;;401.33;;
57231;SDS011;43488;46.934;8.276;2022-09-21T00:14:05;625.70;;;390.50;;
57231;SDS011;43488;46.934;8.276;2022-09-21T00:16:38;628.40;;;326.77;;
57231;SDS011;43488;46.934;8.276;2022-09-21T00:19:08;631.63;;;322.80;;
57231;SDS011;43488;46.934;8.276;2022-09-21T00:21:36;628.63;;;318.05;;
57231;SDS011;43488;46.934;8.276;2022-09-21T00:24:05;631.80;;;321.98;;
57231;SDS011;43488;46.934;8.276;2022-09-21T00:26:33;625.83;;;399.15;;
57231;SDS011;43488;46.934;8.276;2022-09-21T00:29:01;628.40;;;321.80;;
57231;SDS011;43488;46.934;8.276;2022-09-21T00:31:29;626.33;;;321.27;;
57231;SDS011;43488;46.934;8.276;2022-09-21T00:33:59;623.05;;;312.95;;
57231;SDS011;43488;46.934;8.276;2022-09-21T00:36:29;632.28;;;326.80;;
57231;SDS011;43488;46.934;8.276;2022-09-21T00:38:57;627.80;;;399.73;;
57231;SDS011;43488;46.934;8.276;2022-09-21T00:46:43;622.97;;;391.10;;
57231;SDS011;43488;46.934;8.276;2022-09-21T00:49:12;629.38;;;405.10;;
57231;SDS011;43488;46.934;8.276;2022-09-21T00:51:40;625.17;;;321.02;;
57231;SDS011;43488;46.934;8.276;2022-09-21T00:54:17;628.40;;;323.25;;
57231;SDS011;43488;46.934;8.276;2022-09-21T00:56:53;626.63;;;315.38;;
57231;SDS011;43488;46.934;8.276;2022-09-21T00:59:21;627.92;;;397.08;;
57231;SDS011;43488;46.934;8.276;2022-09-21T01:01:49;626.88;;;400.98;;
57231;SDS011;43488;46.934;8.276;2022-09-21T01:04:17;625.72;;;392.75;;
57231;SDS011;43488;46.934;8.276;2022-09-21T01:06:46;626.95;;;402.73;;
57231;SDS011;43488;46.934;8.276;2022-09-21T01:09:14;627.35;;;316.70;;
57231;SDS011;43488;46.934;8.276;2022-09-21T01:30:00;630.15;;;400.98;;
57231;SDS011;43488;46.934;8.276;2022-09-21T01:32:40;622.42;;;388.35;;
57231;SDS011;43488;46.934;8.276;2022-09-21T01:35:36;620.03;;;315.98;;
57231;SDS011;43488;46.934;8.276;2022-09-21T01:38:16;628.45;;;396.08;;
57231;SDS011;43488;46.934;8.276;2022-09-21T01:43:38;618.00;;;311.13;;
57231;SDS011;43488;46.934;8.276;2022-09-21T01:46:17;618.53;;;397.20;;
57231;SDS011;43488;46.934;8.276;2022-09-21T01:48:52;614.92;;;384.60;;
57231;SDS011;43488;46.934;8.276;2022-09-21T01:51:25;621.00;;;399.42;;
57231;SDS011;43488;46.934;8.276;2022-09-21T01:53:55;615.58;;;315.25;;
57231;SDS011;43488;46.934;8.276;2022-09-21T01:56:32;620.63;;;396.48;;
57231;SDS011;43488;46.934;8.276;2022-09-21T01:59:17;615.95;;;315.75;;
57231;SDS011;43488;46.934;8.276;2022-09-21T02:05:24;615.60;;;314.33;;
57231;SDS011;43488;46.934;8.276;2022-09-21T02:07:55;621.50;;;325.67;;
57231;SDS011;43488;46.934;8.276;2022-09-21T02:10:28;616.67;;;312.65;;
57231;SDS011;43488;46.934;8.276;2022-09-21T02:13:04;613.60;;;384.35;;
57231;SDS011;43488;46.934;8.276;2022-09-21T02:19:35;619.28;;;387.88;;
57231;SDS011;43488;46.934;8.276;2022-09-21T02:25:10;615.67;;;308.85;;
57231;SDS011;43488;46.934;8.276;2022-09-21T02:27:48;613.83;;;308.23;;
57231;SDS011;43488;46.934;8.276;2022-09-21T02:30:23;612.45;;;386.33;;
57231;SDS011;43488;46.934;8.276;2022-09-21T02:33:03;613.55;;;396.05;;
57231;SDS011;43488;46.934;8.276;2022-09-21T02:36:15;613.20;;;310.10;;
57231;SDS011;43488;46.934;8.276;2022-09-21T02:39:08;606.40;;;308.25;;
57231;SDS011;43488;46.934;8.276;2022-09-21T02:41:45;606.25;;;396.25;;
57231;SDS011;43488;46.934;8.276;2022-09-21T02:44:41;609.08;;;312.52;;
57231;SDS011;43488;46.934;8.276;2022-09-21T02:47:20;610.90;;;318.88;;
57231;SDS011;43488;46.934;8.276;2022-09-21T02:49:55;602.05;;;309.92;;
57231;SDS011;43488;46.934;8.276;2022-09-21T02:52:29;603.28;;;399.15;;
57231;SDS011;43488;46.934;8.276;2022-09-21T02:55:00;604.88;;;304.50;;
57231;SDS011;43488;46.934;8.276;2022-09-21T02:57:29;602.35;;;395.15;;
57231;SDS011;43488;46.934;8.276;2022-09-21T02:59:57;606.45;;;305.08;;
57231;SDS011;43488;46.934;8.276;2022-09-21T03:02:34;611.83;;;318.63;;
57231;SDS011;43488;46.934;8.276;2022-09-21T03:05:08;602.78;;;306.40;;
57231;SDS011;43488;46.934;8.276;2022-09-21T03:07:38;610.20;;;313.50;;
57231;SDS011;43488;46.934;8.276;2022-09-21T03:10:05;605.78;;;303.95;;
57231;SDS011;43488;46.934;8.276;2022-09-21T03:12:35;590.72;;;392.20;;
57231;SDS011;43488;46.934;8.276;2022-09-21T03:15:03;603.95;;;387.33;;
57231;SDS011;43488;46.934;8.276;2022-09-21T03:17:32;599.22;;;395.77;;
57231;SDS011;43488;46.934;8.276;2022-09-21T03:20:00;597.72;;;391.33;;
57231;SDS011;43488;46.934;8.276;2022-09-21T03:22:27;605.65;;;316.35;;
57231;SDS011;43488;46.934;8.276;2022-09-21T03:24:55;602.72;;;307.38;;
57231;SDS011;43488;46.934;8.276;2022-09-21T03:27:23;599.97;;;393.08;;
57231;SDS011;43488;46.934;8.276;2022-09-21T03:29:51;606.10;;;318.25;;
57231;SDS011;43488;46.934;8.276;2022-09-21T03:32:19;603.75;;;393.17;;
57231;SDS011;43488;46.934;8.276;2022-09-21T03:34:47;601.45;;;306.67;;
57231;SDS011;43488;46.934;8.276;2022-09-21T03:37:14;611.25;;;320.73;;
57231;SDS011;43488;46.934;8.276;2022-09-21T03:39:42;604.53;;;313.42;;
57231;SDS011;43488;46.934;8.276;2022-09-21T03:42:13;606.00;;;312.83;;
57231;SDS011;43488;46.934;8.276;2022-09-21T03:44:40;599.42;;;387.10;;
57231;SDS011;43488;46.934;8.276;2022-09-21T03:47:07;599.08;;;306.20;;
57231;SDS011;43488;46.934;8.276;2022-09-21T03:49:34;607.17;;;311.20;;
57231;SDS011;43488;46.934;8.276;2022-09-21T03:52:02;601.22;;;397.20;;
57231;SDS011;43488;46.934;8.276;2022-09-21T03:54:29;601.10;;;309.73;;
57231;SDS011;43488;46.934;8.276;2022-09-21T03:56:57;599.47;;;395.63;;
57231;SDS011;43488;46.934;8.276;2022-09-21T03:59:24;596.75;;;381.15;;
57231;SDS011;43488;46.934;8.276;2022-09-21T04:01:51;593.60;;;386.98;;
57231;SDS011;43488;46.934;8.276;2022-09-21T04:04:19;597.15;;;375.88;;
57231;SDS011;43488;46.934;8.276;2022-09-21T04:06:47;598.10;;;393.02;;
57231;SDS011;43488;46.934;8.276;2022-09-21T04:09:14;596.60;;;390.38;;
57231;SDS011;43488;46.934;8.276;2022-09-21T04:11:43;601.88;;;393.92;;
57231;SDS011;43488;46.934;8.276;2022-09-21T04:14:12;601.75;;;308.48;;
57231;SDS011;43488;46.934;8.276;2022-09-21T04:16:39;592.78;;;376.17;;
57231;SDS011;43488;46.934;8.276;2022-09-21T04:19:07;601.58;;;389.75;;
57231;SDS011;43488;46.934;8.276;2022-09-21T04:21:34;596.42;;;396.25;;
57231;SDS011;43488;46.934;8.276;2022-09-21T04:24:01;590.28;;;382.15;;
57231;SDS011;43488;46.934;8.276;2022-09-21T04:26:33;596.85;;;307.77;;
57231;SDS011;43488;46.934;8.276;2022-09-21T04:29:02;596.80;;;385.27;;
57231;SDS011;43488;46.934;8.276;2022-09-21T04:31:30;598.90;;;399.90;;
57231;SDS011;43488;46.934;8.276;2022-09-21T04:33:59;600.50;;;400.92;;
57231;SDS011;43488;46.934;8.276;2022-09-21T04:36:27;592.97;;;391.92;;
57231;SDS011;43488;46.934;8.276;2022-09-21T04:38:55;608.88;;;321.33;;
57231;SDS011;43488;46.934;8.276;2022-09-21T04:41:23;595.10;;;382.83;;
57231;SDS011;43488;46.934;8.276;2022-09-21T04:43:50;594.03;;;386.20;;
57231;SDS011;43488;46.934;8.276;2022-09-21T04:46:19;591.90;;;386.25;;
57231;SDS011;43488;46.934;8.276;2022-09-21T04:48:47;602.13;;;315.27;;
57231;SDS011;43488;46.934;8.276;2022-09-21T04:51:15;597.28;;;396.02;;
57231;SDS011;43488;46.934;8.276;2022-09-21T04:53:43;605.33;;;311.83;;
57231;SDS011;43488;46.934;8.276;2022-09-21T04:56:12;606.17;;;312.77;;
57231;SDS011;43488;46.934;8.276;2022-09-21T04:58:41;597.22;;;393.17;;
57231;SDS011;43488;46.934;8.276;2022-09-21T05:01:09;595.17;;;392.98;;
57231;SDS011;43488;46.934;8.276;2022-09-21T05:03:37;598.40;;;308.98;;
57231;SDS011;43488;46.934;8.276;2022-09-21T05:06:08;597.17;;;383.58;;
57231;SDS011;43488;46.934;8.276;2022-09-21T05:08:38;597.42;;;393.75;;
57231;SDS011;43488;46.934;8.276;2022-09-21T05:11:24;601.22;;;313.42;;
57231;SDS011;43488;46.934;8.276;2022-09-21T05:13:52;605.40;;;402.38;;
57231;SDS011;43488;46.934;8.276;2022-09-21T05:16:19;596.60;;;309.13;;
57231;SDS011;43488;46.934;8.276;2022-09-21T05:18:47;611.40;;;324.58;;
57231;SDS011;43488;46.934;8.276;2022-09-21T05:21:19;599.75;;;313.52;;
57231;SDS011;43488;46.934;8.276;2022-09-21T05:23:47;601.13;;;309.55;;
57231;SDS011;43488;46.934;8.276;2022-09-21T05:26:14;606.05;;;323.13;;
57231;SDS011;43488;46.934;8.276;2022-09-21T05:28:41;602.25;;;387.95;;
57231;SDS011;43488;46.934;8.276;2022-09-21T05:37:04;600.22;;;397.55;;
57231;SDS011;43488;46.934;8.276;2022-09-21T05:40:04;602.35;;;389.83;;
57231;SDS011;43488;46.934;8.276;2022-09-21T05:42:35;608.10;;;390.92;;
57231;SDS011;43488;46.934;8.276;2022-09-21T05:45:03;602.10;;;311.50;;
57231;SDS011;43488;46.934;8.276;2022-09-21T05:47:42;606.28;;;402.42;;
57231;SDS011;43488;46.934;8.276;2022-09-21T06:02:41;602.38;;;408.00;;
57231;SDS011;43488;46.934;8.276;2022-09-21T06:05:30;611.08;;;391.42;;
57231;SDS011;43488;46.934;8.276;2022-09-21T06:07:57;600.33;;;382.17;;
57231;SDS011;43488;46.934;8.276;2022-09-21T06:10:24;609.10;;;316.90;;
57231;SDS011;43488;46.934;8.276;2022-09-21T06:12:57;599.97;;;384.08;;
57231;SDS011;43488;46.934;8.276;2022-09-21T06:15:26;604.55;;;389.67;;
57231;SDS011;43488;46.934;8.276;2022-09-21T06:17:55;607.75;;;313.38;;
57231;SDS011;43488;46.934;8.276;2022-09-21T06:20:24;607.97;;;314.95;;
57231;SDS011;43488;46.934;8.276;2022-09-21T06:22:52;607.55;;;320.00;;
57231;SDS011;43488;46.934;8.276;2022-09-21T06:25:36;604.40;;;392.02;;
57231;SDS011;43488;46.934;8.276;2022-09-21T06:28:05;604.47;;;309.92;;
57231;SDS011;43488;46.934;8.276;2022-09-21T06:30:36;606.55;;;310.70;;
57231;SDS011;43488;46.934;8.276;2022-09-21T06:33:05;613.47;;;323.02;;
57231;SDS011;43488;46.934;8.276;2022-09-21T06:35:33;604.88;;;393.13;;
57231;SDS011;43488;46.934;8.276;2022-09-21T06:38:06;605.58;;;315.17;;
57231;SDS011;43488;46.934;8.276;2022-09-21T06:43:02;603.08;;;395.13;;
57231;SDS011;43488;46.934;8.276;2022-09-21T06:45:31;611.35;;;404.65;;
57231;SDS011;43488;46.934;8.276;2022-09-21T06:47:58;605.60;;;387.17;;
57231;SDS011;43488;46.934;8.276;2022-09-21T06:50:26;608.22;;;396.13;;
57231;SDS011;43488;46.934;8.276;2022-09-21T06:52:53;606.92;;;391.90;;
57231;SDS011;43488;46.934;8.276;2022-09-21T06:55:20;602.47;;;312.35;;
57231;SDS011;43488;46.934;8.276;2022-09-21T06:57:48;606.88;;;311.73;;
57231;SDS011;43488;46.934;8.276;2022-09-21T07:00:17;610.55;;;310.83;;
57231;SDS011;43488;46.934;8.276;2022-09-21T07:02:44;616.70;;;320.27;;
57231;SDS011;43488;46.934;8.276;2022-09-21T07:05:12;612.75;;;403.52;;
57231;SDS011;43488;46.934;8.276;2022-09-21T07:07:40;614.78;;;314.33;;
57231;SDS011;43488;46.934;8.276;2022-09-21T07:10:07;605.92;;;311.60;;
57231;SDS011;43488;46.934;8.276;2022-09-21T07:12:35;605.95;;;386.23;;
57231;SDS011;43488;46.934;8.276;2022-09-21T07:15:07;608.58;;;397.65;;
57231;SDS011;43488;46.934;8.276;2022-09-21T07:17:36;609.67;;;393.40;;
57231;SDS011;43488;46.934;8.276;2022-09-21T07:20:05;606.45;;;311.98;;
57231;SDS011;43488;46.934;8.276;2022-09-21T07:22:33;609.15;;;314.60;;
57231;SDS011;43488;46.934;8.276;2022-09-21T07:25:02;612.65;;;325.92;;
57231;SDS011;43488;46.934;8.276;2022-09-21T07:27:31;618.53;;;321.13;;
57231;SDS011;43488;46.934;8.276;2022-09-21T07:29:59;612.92;;;320.10;;
57231;SDS011;43488;46.934;8.276;2022-09-21T07:32:26;614.67;;;397.88;;
57231;SDS011;43488;46.934;8.276;2022-09-21T07:34:54;613.58;;;403.13;;
57231;SDS011;43488;46.934;8.276;2022-09-21T07:37:25;617.72;;;403.55;;
57231;SDS011;43488;46.934;8.276;2022-09-21T07:39:52;615.23;;;395.80;;
57231;SDS011;43488;46.934;8.276;2022-09-21T07:42:20;620.55;;;326.25;;
57231;SDS011;43488;46.934;8.276;2022-09-21T07:44:48;619.10;;;413.25;;
57231;SDS011;43488;46.934;8.276;2022-09-21T07:47:15;613.78;;;398.42;;
57231;SDS011;43488;46.934;8.276;2022-09-21T07:49:44;621.97;;;330.52;;
57231;SDS011;43488;46.934;8.276;2022-09-21T07:52:13;615.05;;;404.00;;
57231;SDS011;43488;46.934;8.276;2022-09-21T07:54:41;618.00;;;411.25;;
57231;SDS011;43488;46.934;8.276;2022-09-21T07:57:09;617.50;;;322.80;;
57231;SDS011;43488;46.934;8.276;2022-09-21T07:59:56;615.22;;;404.20;;
57231;SDS011;43488;46.934;8.276;2022-09-21T08:02:23;620.45;;;409.02;;
57231;SDS011;43488;46.934;8.276;2022-09-21T08:04:51;619.92;;;416.75;;
57231;SDS011;43488;46.934;8.276;2022-09-21T08:07:19;612.63;;;394.85;;
57231;SDS011;43488;46.934;8.276;2022-09-21T08:09:47;616.45;;;325.85;;
57231;SDS011;43488;46.934;8.276;2022-09-21T08:12:17;627.38;;;334.73;;
57231;SDS011;43488;46.934;8.276;2022-09-21T08:14:46;624.95;;;417.42;;
57231;SDS011;43488;46.934;8.276;2022-09-21T08:17:13;623.95;;;325.50;;
57231;SDS011;43488;46.934;8.276;2022-09-21T08:19:41;625.55;;;414.13;;
57231;SDS011;43488;46.934;8.276;2022-09-21T08:22:08;624.80;;;335.48;;
57231;SDS011;43488;46.934;8.276;2022-09-21T08:24:37;623.20;;;329.02;;
57231;SDS011;43488;46.934;8.276;2022-09-21T08:27:09;630.88;;;404.52;;
57231;SDS011;43488;46.934;8.276;2022-09-21T08:29:37;627.80;;;331.83;;
57231;SDS011;43488;46.934;8.276;2022-09-21T08:32:04;637.38;;;339.95;;
57231;SDS011;43488;46.934;8.276;2022-09-21T08:34:31;636.35;;;336.98;;
57231;SDS011;43488;46.934;8.276;2022-09-21T08:36:59;631.53;;;408.80;;
57231;SDS011;43488;46.934;8.276;2022-09-21T08:39:27;630.13;;;411.65;;
57231;SDS011;43488;46.934;8.276;2022-09-21T08:42:08;636.25;;;425.60;;
57231;SDS011;43488;46.934;8.276;2022-09-21T08:44:58;630.28;;;409.10;;
57231;SDS011;43488;46.934;8.276;2022-09-21T08:53:01;635.45;;;343.00;;
57231;SDS011;43488;46.934;8.276;2022-09-21T08:55:38;638.53;;;416.52;;
57231;SDS011;43488;46.934;8.276;2022-09-21T08:58:14;633.50;;;333.40;;
57231;SDS011;43488;46.934;8.276;2022-09-21T09:09:24;638.63;;;331.73;;
57231;SDS011;43488;46.934;8.276;2022-09-21T09:18:07;639.25;;;408.95;;
57231;SDS011;43488;46.934;8.276;2022-09-21T09:20:42;640.38;;;338.38;;
57231;SDS011;43488;46.934;8.276;2022-09-21T09:23:22;641.45;;;412.42;;
57231;SDS011;43488;46.934;8.276;2022-09-21T09:26:08;634.55;;;337.52;;
57231;SDS011;43488;46.934;8.276;2022-09-21T09:28:52;637.33;;;337.77;;
57231;SDS011;43488;46.934;8.276;2022-09-21T09:31:28;639.47;;;401.73;;
57231;SDS011;43488;46.934;8.276;2022-09-21T09:34:00;630.80;;;330.88;;
57231;SDS011;43488;46.934;8.276;2022-09-21T09:36:51;640.53;;;345.33;;
57231;SDS011;43488;46.934;8.276;2022-09-21T09:39:24;638.30;;;412.48;;
57231;SDS011;43488;46.934;8.276;2022-09-21T09:48:47;634.10;;;338.90;;
57231;SDS011;43488;46.934;8.276;2022-09-21T09:51:29;634.53;;;342.50;;
57231;SDS011;43488;46.934;8.276;2022-09-21T09:54:00;637.67;;;407.15;;
57231;SDS011;43488;46.934;8.276;2022-09-21T09:56:30;644.15;;;416.25;;
57231;SDS011;43488;46.934;8.276;2022-09-21T09:58:59;646.30;;;418.48;;
57231;SDS011;43488;46.934;8.276;2022-09-21T10:01:40;642.17;;;351.35;;
57231;SDS011;43488;46.934;8.276;2022-09-21T10:04:13;643.78;;;423.50;;
57231;SDS011;43488;46.934;8.276;2022-09-21T10:06:43;643.00;;;423.13;;
57231;SDS011;43488;46.934;8.276;2022-09-21T10:12:00;635.50;;;355.23;;
57231;SDS011;43488;46.934;8.276;2022-09-21T10:14:53;636.45;;;353.23;;
57231;SDS011;43488;46.934;8.276;2022-09-21T10:17:25;635.80;;;422.98;;
57231;SDS011;43488;46.934;8.276;2022-09-21T10:20:00;629.05;;;347.70;;
57231;SDS011;43488;46.934;8.276;2022-09-21T10:22:30;634.75;;;360.88;;
57231;SDS011;43488;46.934;8.276;2022-09-21T10:24:58;632.95;;;429.15;;
57231;SDS011;43488;46.934;8.276;2022-09-21T10:27:28;632.28;;;425.35;;
57231;SDS011;43488;46.934;8.276;2022-09-21T10:30:02;632.38;;;358.85;;
57231;SDS011;43488;46.934;8.276;2022-09-21T10:32:30;620.65;;;359.00;;
57231;SDS011;43488;46.934;8.276;2022-09-21T10:37:36;603.38;;;343.17;;
57231;SDS011;43488;46.934;8.276;2022-09-21T10:42:55;599.50;;;418.70;;
57231;SDS011;43488;46.934;8.276;2022-09-21T10:45:26;609.95;;;349.40;;
57231;SDS011;43488;46.934;8.276;2022-09-21T10:48:13;601.47;;;423.45;;
57231;SDS011;43488;46.934;8.276;2022-09-21T10:50:44;597.72;;;336.55;;
57231;SDS011;43488;46.934;8.276;2022-09-21T10:58:30;609.90;;;354.67;;
57231;SDS011;43488;46.934;8.276;2022-09-21T11:01:11;596.20;;;421.10;;
57231;SDS011;43488;46.934;8.276;2022-09-21T11:06:34;603.03;;;346.90;;
57231;SDS011;43488;46.934;8.276;2022-09-21T11:09:08;596.72;;;414.17;;
57231;SDS011;43488;46.934;8.276;2022-09-21T11:25:41;603.65;;;414.52;;
57231;SDS011;43488;46.934;8.276;2022-09-21T11:28:20;589.88;;;399.63;;
57231;SDS011;43488;46.934;8.276;2022-09-21T11:34:35;589.15;;;378.05;;
57231;SDS011;43488;46.934;8.276;2022-09-21T12:01:57;610.70;;;322.00;;
57231;SDS011;43488;46.934;8.276;2022-09-21T12:04:54;589.42;;;394.88;;
57231;SDS011;43488;46.934;8.276;2022-09-21T12:11:24;597.80;;;420.77;;
57231;SDS011;43488;46.934;8.276;2022-09-21T12:14:17;598.25;;;420.13;;
57231;SDS011;43488;46.934;8.276;2022-09-21T12:17:12;598.17;;;408.00;;
57231;SDS011;43488;46.934;8.276;2022-09-21T12:22:46;592.83;;;405.77;;
57231;SDS011;43488;46.934;8.276;2022-09-21T12:25:22;598.05;;;425.25;;
57231;SDS011;43488;46.934;8.276;2022-09-21T12:28:17;621.35;;;377.05;;
57231;SDS011;43488;46.934;8.276;2022-09-21T12:31:01;624.25;;;387.08;;
57231;SDS011;43488;46.934;8.276;2022-09-21T12:33:57;599.42;;;422.65;;
57231;SDS011;43488;46.934;8.276;2022-09-21T12:36:39;599.00;;;414.57;;
57231;SDS011;43488;46.934;8.276;2022-09-21T12:39:16;608.35;;;330.52;;
57231;SDS011;43488;46.934;8.276;2022-09-21T12:50:45;620.45;;;370.13;;
57231;SDS011;43488;46.934;8.276;2022-09-21T12:53:31;622.22;;;447.02;;
57231;SDS011;43488;46.934;8.276;2022-09-21T12:56:09;629.58;;;384.23;;
57231;SDS011;43488;46.934;8.276;2022-09-21T13:07:01;640.17;;;389.63;;
57231;SDS011;43488;46.934;8.276;2022-09-21T13:09:48;642.75;;;457.35;;
57231;SDS011;43488;46.934;8.276;2022-09-21T13:12:23;643.95;;;456.50;;
57231;SDS011;43488;46.934;8.276;2022-09-21T13:15:02;645.13;;;449.63;;
57231;SDS011;43488;46.934;8.276;2022-09-21T13:17:57;636.85;;;450.98;;
57231;SDS011;43488;46.934;8.276;2022-09-21T13:20:32;634.22;;;464.17;;
57231;SDS011;43488;46.934;8.276;2022-09-21T13:23:03;633.10;;;383.88;;
57231;SDS011;43488;46.934;8.276;2022-09-21T13:25:32;633.20;;;387.38;;
57231;SDS011;43488;46.934;8.276;2022-09-21T13:31:06;631.20;;;460.13;;
57231;SDS011;43488;46.934;8.276;2022-09-21T13:36:41;629.67;;;448.73;;
57231;SDS011;43488;46.934;8.276;2022-09-21T13:39:18;634.65;;;445.40;;
57231;SDS011;43488;46.934;8.276;2022-09-21T13:41:46;638.22;;;458.45;;
57231;SDS011;43488;46.934;8.276;2022-09-21T13:46:46;634.58;;;391.40;;
57231;SDS011;43488;46.934;8.276;2022-09-21T13:49:22;639.95;;;471.20;;
57231;SDS011;43488;46.934;8.276;2022-09-21T13:52:04;640.63;;;401.90;;
57231;SDS011;43488;46.934;8.276;2022-09-21T13:57:25;639.78;;;447.58;;
57231;SDS011;43488;46.934;8.276;2022-09-21T14:10:47;643.40;;;401.63;;
57231;SDS011;43488;46.934;8.276;2022-09-21T14:24:36;639.53;;;411.10;;
57231;SDS011;43488;46.934;8.276;2022-09-21T14:27:26;634.43;;;396.03;;
57231;SDS011;43488;46.934;8.276;2022-09-21T14:30:17;630.47;;;445.58;;
57231;SDS011;43488;46.934;8.276;2022-09-21T14:35:30;636.45;;;405.27;;
57231;SDS011;43488;46.934;8.276;2022-09-21T14:38:23;630.10;;;386.90;;
57231;SDS011;43488;46.934;8.276;2022-09-21T14:41:02;630.05;;;454.08;;
57231;SDS011;43488;46.934;8.276;2022-09-21T14:43:35;630.58;;;452.17;;
57231;SDS011;43488;46.934;8.276;2022-09-21T14:52:03;607.28;;;421.25;;
57231;SDS011;43488;46.934;8.276;2022-09-21T14:54:52;611.42;;;433.90;;
57231;SDS011;43488;46.934;8.276;2022-09-21T15:00:42;613.53;;;433.25;;
57231;SDS011;43488;46.934;8.276;2022-09-21T15:06:33;610.17;;;430.27;;
57231;SDS011;43488;46.934;8.276;2022-09-21T15:09:39;601.85;;;433.67;;
57231;SDS011;43488;46.934;8.276;2022-09-21T15:15:38;609.47;;;428.63;;
57231;SDS011;43488;46.934;8.276;2022-09-21T15:18:23;610.78;;;430.42;;
57231;SDS011;43488;46.934;8.276;2022-09-21T15:20:59;608.10;;;435.05;;
57231;SDS011;43488;46.934;8.276;2022-09-21T15:23:47;614.95;;;440.05;;
57231;SDS011;43488;46.934;8.276;2022-09-21T15:26:26;634.05;;;397.58;;
57231;SDS011;43488;46.934;8.276;2022-09-21T15:28:59;616.35;;;448.33;;
57231;SDS011;43488;46.934;8.276;2022-09-21T15:31:33;627.60;;;397.08;;
57231;SDS011;43488;46.934;8.276;2022-09-21T15:34:05;625.20;;;371.88;;
57231;SDS011;43488;46.934;8.276;2022-09-21T15:36:39;609.78;;;406.17;;
57231;SDS011;43488;46.934;8.276;2022-09-21T15:39:22;604.47;;;419.83;;
57231;SDS011;43488;46.934;8.276;2022-09-21T15:44:36;617.08;;;370.35;;
57231;SDS011;43488;46.934;8.276;2022-09-21T15:47:09;620.22;;;444.02;;
57231;SDS011;43488;46.934;8.276;2022-09-21T15:49:38;623.08;;;444.25;;
57231;SDS011;43488;46.934;8.276;2022-09-21T15:52:11;623.47;;;438.35;;
57231;SDS011;43488;46.934;8.276;2022-09-21T15:55:00;625.85;;;368.25;;
57231;SDS011;43488;46.934;8.276;2022-09-21T15:57:53;619.72;;;435.80;;
57231;SDS011;43488;46.934;8.276;2022-09-21T16:00:27;632.13;;;371.17;;
57231;SDS011;43488;46.934;8.276;2022-09-21T16:05:43;629.60;;;434.63;;
57231;SDS011;43488;46.934;8.276;2022-09-21T16:08:18;626.15;;;430.70;;
57231;SDS011;43488;46.934;8.276;2022-09-21T16:13:45;627.47;;;441.83;;
57231;SDS011;43488;46.934;8.276;2022-09-21T16:16:33;625.10;;;431.48;;
57231;SDS011;43488;46.934;8.276;2022-09-21T16:19:42;623.70;;;425.83;;
57231;SDS011;43488;46.934;8.276;2022-09-21T16:22:18;626.53;;;423.83;;
57231;SDS011;43488;46.934;8.276;2022-09-21T16:24:57;630.30;;;367.75;;
57231;SDS011;43488;46.934;8.276;2022-09-21T16:27:27;627.78;;;360.38;;
57231;SDS011;43488;46.934;8.276;2022-09-21T16:29:57;628.20;;;358.05;;
57231;SDS011;43488;46.934;8.276;2022-09-21T16:32:32;624.72;;;358.92;;
57231;SDS011;43488;46.934;8.276;2022-09-21T16:37:46;624.95;;;412.15;;
57231;SDS011;43488;46.934;8.276;2022-09-21T16:40:14;626.72;;;420.00;;
57231;SDS011;43488;46.934;8.276;2022-09-21T16:42:41;634.45;;;362.00;;
57231;SDS011;43488;46.934;8.276;2022-09-21T16:45:15;642.97;;;369.38;;
57231;SDS011;43488;46.934;8.276;2022-09-21T16:47:50;644.53;;;364.23;;
57231;SDS011;43488;46.934;8.276;2022-09-21T16:50:19;641.75;;;422.48;;
57231;SDS011;43488;46.934;8.276;2022-09-21T16:52:46;645.42;;;429.85;;
57231;SDS011;43488;46.934;8.276;2022-09-21T16:55:17;636.85;;;358.63;;
57231;SDS011;43488;46.934;8.276;2022-09-21T16:57:45;644.35;;;431.35;;
57231;SDS011;43488;46.934;8.276;2022-09-21T17:00:16;646.22;;;425.00;;
57231;SDS011;43488;46.934;8.276;2022-09-21T17:02:47;637.67;;;356.03;;
57231;SDS011;43488;46.934;8.276;2022-09-21T17:05:15;634.60;;;352.95;;
57231;SDS011;43488;46.934;8.276;2022-09-21T17:08:02;640.13;;;424.02;;
57231;SDS011;43488;46.934;8.276;2022-09-21T17:10:31;641.00;;;360.30;;
57231;SDS011;43488;46.934;8.276;2022-09-21T17:13:04;640.00;;;433.63;;
57231;SDS011;43488;46.934;8.276;2022-09-21T17:15:34;642.13;;;363.60;;
57231;SDS011;43488;46.934;8.276;2022-09-21T17:18:04;635.67;;;352.55;;
57231;SDS011;43488;46.934;8.276;2022-09-21T17:20:36;633.05;;;348.63;;
57231;SDS011;43488;46.934;8.276;2022-09-21T17:23:10;635.10;;;351.40;;
57231;SDS011;43488;46.934;8.276;2022-09-21T17:25:38;634.05;;;352.67;;
57231;SDS011;43488;46.934;8.276;2022-09-21T17:28:13;639.35;;;424.02;;
57231;SDS011;43488;46.934;8.276;2022-09-21T17:30:52;639.00;;;422.23;;
57231;SDS011;43488;46.934;8.276;2022-09-21T17:33:19;635.53;;;419.80;;
57231;SDS011;43488;46.934;8.276;2022-09-21T17:35:48;639.38;;;423.05;;
57231;SDS011;43488;46.934;8.276;2022-09-21T17:38:16;637.30;;;352.05;;
57231;SDS011;43488;46.934;8.276;2022-09-21T17:40:43;639.47;;;352.98;;
57231;SDS011;43488;46.934;8.276;2022-09-21T17:43:15;639.65;;;424.85;;
57231;SDS011;43488;46.934;8.276;2022-09-21T17:49:06;634.13;;;341.77;;
57231;SDS011;43488;46.934;8.276;2022-09-21T17:51:37;634.65;;;346.33;;
57231;SDS011;43488;46.934;8.276;2022-09-21T17:54:23;647.78;;;421.85;;
57231;SDS011;43488;46.934;8.276;2022-09-21T18:05:53;648.15;;;423.92;;
57231;SDS011;43488;46.934;8.276;2022-09-21T18:08:30;650.10;;;424.65;;
57231;SDS011;43488;46.934;8.276;2022-09-21T18:11:02;640.03;;;338.63;;
57231;SDS011;43488;46.934;8.276;2022-09-21T18:13:49;643.58;;;416.08;;
57231;SDS011;43488;46.934;8.276;2022-09-21T18:17:07;643.20;;;411.58;;
57231;SDS011;43488;46.934;8.276;2022-09-21T18:25:56;644.05;;;346.48;;
57231;SDS011;43488;46.934;8.276;2022-09-21T18:33:53;640.45;;;409.67;;
57231;SDS011;43488;46.934;8.276;2022-09-21T18:45:48;632.15;;;339.45;;
57231;SDS011;43488;46.934;8.276;2022-09-21T18:48:51;630.15;;;338.83;;
57231;SDS011;43488;46.934;8.276;2022-09-21T18:54:36;631.67;;;340.80;;
57231;SDS011;43488;46.934;8.276;2022-09-21T18:57:11;635.28;;;335.02;;
57231;SDS011;43488;46.934;8.276;2022-09-21T18:59:40;636.38;;;414.98;;